createdAt,value
2022-12-29T00:02:27.397Z,99749.56
2022-12-29T00:04:57.253Z,99763.88
2022-12-29T00:07:25.015Z,99761.06
2022-12-29T00:09:52.808Z,99763.03
2022-12-29T00:12:20.670Z,99757.00
2022-12-29T00:15:06.205Z,99754.88
2022-12-29T00:17:34.848Z,99761.78
2022-12-29T00:20:21.628Z,99747.88
2022-12-29T00:23:07.171Z,99753.78
2022-12-29T00:25:52.389Z,99747.88
2022-12-29T00:28:37.654Z,99751.38
2022-12-29T00:31:36.570Z,99763.72
2022-12-29T00:34:21.959Z,99745.03
2022-12-29T00:36:51.162Z,99763.28
2022-12-29T00:39:38.299Z,99757.66
2022-12-29T00:42:23.933Z,99749.53
2022-12-29T00:44:51.834Z,99753.31
2022-12-29T00:47:19.710Z,99758.34
2022-12-29T00:49:46.697Z,99750.78
2022-12-29T00:52:17.039Z,99748.00
2022-12-29T00:54:46.243Z,99748.97
2022-12-29T00:57:14.444Z,99747.28
2022-12-29T00:59:43.543Z,99748.00
2022-12-29T01:02:12.254Z,99742.66
2022-12-29T01:04:40.209Z,99737.00
2022-12-29T01:07:07.970Z,99743.16
2022-12-29T01:09:54.909Z,99739.13
2022-12-29T01:12:41.565Z,99733.66
2022-12-29T01:15:11.794Z,99732.56
2022-12-29T01:17:39.599Z,99734.66
2022-12-29T01:20:08.725Z,99742.66
2022-12-29T01:22:36.560Z,99737.69
2022-12-29T01:25:06.808Z,99730.84
2022-12-29T01:27:35.014Z,99738.31
2022-12-29T01:30:03.132Z,99736.31
2022-12-29T01:32:30.969Z,99746.72
2022-12-29T01:34:58.790Z,99751.50
2022-12-29T01:37:26.595Z,99753.31
2022-12-29T01:39:54.396Z,99752.50
2022-12-29T01:42:27.596Z,99749.38
2022-12-29T01:44:58.187Z,99740.00
2022-12-29T01:47:36.667Z,99734.66
2022-12-29T01:50:08.913Z,99754.16
2022-12-29T01:52:40.856Z,99754.47
2022-12-29T01:55:12.872Z,99749.13
2022-12-29T01:57:44.066Z,99741.41
2022-12-29T02:00:14.666Z,99737.72
2022-12-29T02:02:46.248Z,99745.03
2022-12-29T02:05:18.183Z,99748.50
2022-12-29T02:07:46.956Z,99750.22
2022-12-29T02:10:15.677Z,99747.66
2022-12-29T02:12:45.060Z,99746.41
2022-12-29T02:15:13.128Z,99744.31
2022-12-29T02:17:59.424Z,99750.19
2022-12-29T02:21:12.776Z,99755.09
2022-12-29T02:24:02.432Z,99750.47
2022-12-29T02:27:04.316Z,99741.94
2022-12-29T02:29:49.276Z,99732.69
2022-12-29T02:32:30.965Z,99726.78
2022-12-29T02:35:05.546Z,99715.31
2022-12-29T02:37:42.385Z,99713.03
2022-12-29T02:40:21.458Z,99710.22
2022-12-29T02:42:53.423Z,99716.81
2022-12-29T02:45:28.524Z,99709.38
2022-12-29T02:48:06.609Z,99714.41
2022-12-29T02:50:38.813Z,99712.44
2022-12-29T02:53:12.082Z,99711.84
2022-12-29T02:55:38.975Z,99715.38
2022-12-29T02:58:19.596Z,99703.44
2022-12-29T03:00:58.331Z,99704.44
2022-12-29T03:03:40.569Z,99699.09
2022-12-29T03:06:27.008Z,99707.41
2022-12-29T03:09:01.562Z,99701.22
2022-12-29T03:11:54.134Z,99692.38
2022-12-29T03:14:51.312Z,99683.38
2022-12-29T03:17:28.722Z,99691.25
2022-12-29T03:20:06.361Z,99690.00
2022-12-29T03:22:38.701Z,99694.78
2022-12-29T03:25:15.733Z,99684.56
2022-12-29T03:27:49.206Z,99684.56
2022-12-29T03:30:17.999Z,99691.97
2022-12-29T03:32:51.200Z,99681.81
2022-12-29T03:35:24.310Z,99665.81
2022-12-29T03:37:57.546Z,99664.28
2022-12-29T03:40:27.738Z,99651.06
2022-12-29T03:42:56.423Z,99667.97
2022-12-29T03:45:24.450Z,99671.16
2022-12-29T03:47:53.538Z,99657.22
2022-12-29T03:50:23.015Z,99660.47
2022-12-29T03:52:51.045Z,99662.44
2022-12-29T03:55:18.954Z,99653.25
2022-12-29T03:57:46.931Z,99653.25
2022-12-29T04:00:15.639Z,99655.50
2022-12-29T04:02:44.217Z,99667.28
2022-12-29T04:05:12.356Z,99670.66
2022-12-29T04:07:42.194Z,99659.09
2022-12-29T04:10:10.763Z,99661.06
2022-12-29T04:12:38.744Z,99652.06
2022-12-29T04:15:08.287Z,99662.28
2022-12-29T04:17:36.187Z,99653.72
2022-12-29T04:20:18.099Z,99648.00
2022-12-29T04:22:47.280Z,99645.84
2022-12-29T04:25:15.353Z,99639.78
2022-12-29T04:27:43.133Z,99635.56
2022-12-29T04:30:13.573Z,99649.13
2022-12-29T04:32:41.851Z,99643.56
2022-12-29T04:35:10.360Z,99636.97
2022-12-29T04:37:38.181Z,99627.31
2022-12-29T04:40:08.923Z,99645.25
2022-12-29T04:42:37.166Z,99636.53
2022-12-29T04:45:05.290Z,99649.59
2022-12-29T04:47:33.033Z,99647.19
2022-12-29T04:50:00.930Z,99644.47
2022-12-29T04:52:28.775Z,99639.16
2022-12-29T04:54:56.551Z,99646.59
2022-12-29T04:57:25.718Z,99629.38
2022-12-29T04:59:53.534Z,99641.66
2022-12-29T05:02:21.680Z,99653.09
2022-12-29T05:04:49.734Z,99649.97
2022-12-29T05:07:17.897Z,99642.47
2022-12-29T05:09:46.172Z,99640.81
2022-12-29T05:12:14.316Z,99639.81
2022-12-29T05:14:43.504Z,99632.34
2022-12-29T05:17:11.461Z,99643.88
2022-12-29T05:19:39.333Z,99646.66
2022-12-29T05:22:07.154Z,99653.28
2022-12-29T05:24:35.279Z,99625.19
2022-12-29T05:27:03.084Z,99638.16
2022-12-29T05:29:30.870Z,99643.41
2022-12-29T05:32:00.178Z,99638.66
2022-12-29T05:34:28.132Z,99642.88
2022-12-29T05:36:55.915Z,99633.59
2022-12-29T05:39:23.956Z,99636.16
2022-12-29T05:41:51.703Z,99640.91
2022-12-29T05:44:19.513Z,99641.00
2022-12-29T05:46:47.489Z,99647.63
2022-12-29T05:49:16.675Z,99639.91
2022-12-29T05:51:44.675Z,99635.72
2022-12-29T05:54:13.419Z,99641.66
2022-12-29T05:56:41.797Z,99626.91
2022-12-29T05:59:10.180Z,99628.75
2022-12-29T06:01:38.342Z,99642.56
2022-12-29T06:04:06.465Z,99629.38
2022-12-29T06:06:36.254Z,99636.94
2022-12-29T06:09:04.444Z,99631.28
2022-12-29T06:11:32.398Z,99626.56
2022-12-29T06:14:00.421Z,99634.00
2022-12-29T06:16:28.811Z,99625.72
2022-12-29T06:18:56.900Z,99624.13
2022-12-29T06:21:24.997Z,99624.03
2022-12-29T06:23:54.646Z,99608.41
2022-12-29T06:26:22.888Z,99620.19
2022-12-29T06:28:50.810Z,99604.91
2022-12-29T06:31:18.902Z,99623.59
2022-12-29T06:33:49.858Z,99610.56
2022-12-29T06:36:18.313Z,99618.88
2022-12-29T06:38:46.414Z,99608.97
2022-12-29T06:41:15.828Z,99617.66
2022-12-29T06:43:45.241Z,99607.06
2022-12-29T06:46:13.412Z,99607.59
2022-12-29T06:48:43.333Z,99612.94
2022-12-29T06:51:11.360Z,99602.78
2022-12-29T06:53:39.918Z,99596.84
2022-12-29T06:56:08.500Z,99594.38
2022-12-29T06:58:38.540Z,99592.81
2022-12-29T07:01:07.498Z,99597.66
2022-12-29T07:03:35.418Z,99578.06
2022-12-29T07:06:03.578Z,99592.00
2022-12-29T07:08:31.441Z,99595.28
2022-12-29T07:10:59.526Z,99599.59
2022-12-29T07:13:27.687Z,99602.41
2022-12-29T07:15:56.865Z,99600.19
2022-12-29T07:18:25.025Z,99600.25
2022-12-29T07:20:52.960Z,99610.25
2022-12-29T07:23:20.993Z,99607.78
2022-12-29T07:25:48.825Z,99614.13
2022-12-29T07:28:16.960Z,99609.88
2022-12-29T07:30:45.457Z,99612.72
2022-12-29T07:33:14.633Z,99612.19
2022-12-29T07:35:42.584Z,99620.69
2022-12-29T07:38:10.713Z,99623.47
2022-12-29T07:40:38.621Z,99629.22
2022-12-29T07:43:06.765Z,99623.41
2022-12-29T07:45:34.755Z,99624.16
2022-12-29T07:48:03.638Z,99634.72
2022-12-29T07:50:32.975Z,99630.06
2022-12-29T07:53:01.044Z,99626.41
2022-12-29T07:55:28.989Z,99628.31
2022-12-29T07:57:57.697Z,99630.50
2022-12-29T08:00:25.875Z,99633.69
2022-12-29T08:02:54.350Z,99636.81
2022-12-29T08:05:22.578Z,99651.16
2022-12-29T08:07:51.882Z,99638.81
2022-12-29T08:10:21.018Z,99662.13
2022-12-29T08:12:48.967Z,99638.19
2022-12-29T08:15:17.212Z,99658.63
2022-12-29T08:17:45.459Z,99660.66
2022-12-29T08:20:13.425Z,99668.38
2022-12-29T08:22:42.359Z,99670.75
2022-12-29T08:25:12.153Z,99664.25
2022-12-29T08:27:40.224Z,99671.13
2022-12-29T08:30:09.908Z,99682.78
2022-12-29T08:32:38.043Z,99669.13
2022-12-29T08:35:06.936Z,99682.09
2022-12-29T08:37:35.160Z,99681.19
2022-12-29T08:40:05.053Z,99682.03
2022-12-29T08:42:35.008Z,99679.00
2022-12-29T08:45:03.529Z,99673.41
2022-12-29T08:47:31.878Z,99675.41
2022-12-29T08:49:59.726Z,99685.16
2022-12-29T08:52:27.565Z,99684.63
2022-12-29T08:54:55.865Z,99687.56
2022-12-29T08:57:23.700Z,99694.03
2022-12-29T08:59:53.162Z,99688.69
2022-12-29T09:02:24.652Z,99705.19
2022-12-29T09:04:53.397Z,99696.09
2022-12-29T09:07:21.323Z,99692.50
2022-12-29T09:09:49.243Z,99696.09
2022-12-29T09:12:18.111Z,99699.34
2022-12-29T09:14:48.094Z,99703.47
2022-12-29T09:17:35.314Z,99700.53
2022-12-29T09:20:03.511Z,99715.03
2022-12-29T09:22:31.622Z,99706.25
2022-12-29T09:24:59.758Z,99707.91
2022-12-29T09:27:27.617Z,99717.47
2022-12-29T09:29:55.535Z,99710.75
2022-12-29T09:32:27.517Z,99707.69
2022-12-29T09:34:57.833Z,99717.53
2022-12-29T09:37:25.900Z,99721.06
2022-12-29T09:39:54.677Z,99736.75
2022-12-29T09:42:27.838Z,99721.59
2022-12-29T09:45:07.167Z,99725.16
2022-12-29T09:47:37.245Z,99747.34
2022-12-29T09:50:11.824Z,99744.38
2022-12-29T09:52:46.683Z,99753.69
2022-12-29T09:55:17.948Z,99746.59
2022-12-29T09:57:50.897Z,99745.63
2022-12-29T10:00:20.953Z,99750.56
2022-12-29T10:02:54.340Z,99747.44
2022-12-29T10:05:31.521Z,99746.88
2022-12-29T10:08:20.042Z,99749.13
2022-12-29T10:10:54.396Z,99765.28
2022-12-29T10:13:32.814Z,99763.50
2022-12-29T10:16:08.329Z,99754.59
2022-12-29T10:18:57.729Z,99746.59
2022-12-29T10:21:38.165Z,99740.56
2022-12-29T10:24:12.913Z,99750.66
2022-12-29T10:26:44.109Z,99755.84
2022-12-29T10:29:19.064Z,99753.63
2022-12-29T10:31:51.123Z,99752.03
2022-12-29T10:34:28.115Z,99754.00
2022-12-29T10:37:00.794Z,99743.72
2022-12-29T10:39:35.088Z,99746.81
2022-12-29T10:42:12.304Z,99767.75
2022-12-29T10:44:40.519Z,99757.06
2022-12-29T10:47:14.301Z,99750.34
2022-12-29T10:49:44.834Z,99745.00
2022-12-29T10:52:13.982Z,99754.00
2022-12-29T10:54:49.281Z,99748.19
2022-12-29T10:57:29.096Z,99749.16
2022-12-29T10:59:57.551Z,99755.41
2022-12-29T11:02:53.794Z,99751.34
2022-12-29T11:05:29.958Z,99758.38
2022-12-29T11:08:02.442Z,99764.47
2022-12-29T11:10:41.732Z,99780.56
2022-12-29T11:13:19.300Z,99782.91
2022-12-29T11:15:48.867Z,99779.69
2022-12-29T11:18:22.805Z,99787.00
2022-12-29T11:20:54.893Z,99780.84
2022-12-29T11:23:33.298Z,99784.53
2022-12-29T11:26:22.113Z,99788.78
2022-12-29T11:29:08.071Z,99776.75
2022-12-29T11:31:43.578Z,99789.81
2022-12-29T11:34:19.711Z,99787.72
2022-12-29T11:36:49.858Z,99787.72
2022-12-29T11:39:32.776Z,99776.34
2022-12-29T11:42:01.710Z,99794.16
2022-12-29T11:44:29.863Z,99783.22
2022-12-29T11:46:57.813Z,99781.25
2022-12-29T11:49:28.557Z,99776.19
2022-12-29T11:51:58.415Z,99775.63
2022-12-29T11:54:29.901Z,99771.41
2022-12-29T11:56:59.333Z,99781.63
2022-12-29T11:59:43.224Z,99778.47
2022-12-29T12:02:42.781Z,99767.06
2022-12-29T12:05:21.451Z,99763.97
2022-12-29T12:07:56.138Z,99766.06
2022-12-29T12:10:29.863Z,99757.19
2022-12-29T12:13:07.907Z,99760.75
2022-12-29T12:15:46.005Z,99761.53
2022-12-29T12:18:21.032Z,99770.03
2022-12-29T12:20:54.303Z,99766.16
2022-12-29T12:23:35.108Z,99766.28
2022-12-29T12:26:11.769Z,99771.81
2022-12-29T12:28:48.404Z,99773.63
2022-12-29T12:31:23.574Z,99773.19
2022-12-29T12:33:59.990Z,99770.13
2022-12-29T12:36:59.834Z,99772.72
2022-12-29T12:39:41.875Z,99759.75
2022-12-29T12:42:27.077Z,99761.56
2022-12-29T12:45:08.997Z,99772.25
2022-12-29T12:47:56.126Z,99760.19
2022-12-29T12:50:38.275Z,99759.38
2022-12-29T12:53:21.824Z,99751.66
2022-12-29T12:56:14.896Z,99757.25
2022-12-29T12:58:51.417Z,99748.13
2022-12-29T13:01:40.111Z,99742.56
2022-12-29T13:04:28.860Z,99753.84
2022-12-29T13:07:07.213Z,99748.97
2022-12-29T13:09:47.969Z,99755.91
2022-12-29T13:12:31.024Z,99741.44
2022-12-29T13:15:05.851Z,99738.41
2022-12-29T13:17:41.957Z,99736.47
2022-12-29T13:20:26.339Z,99734.88
2022-12-29T13:23:02.427Z,99738.97
2022-12-29T13:25:38.821Z,99734.34
2022-12-29T13:28:18.724Z,99743.88
2022-12-29T13:30:55.792Z,99743.34
2022-12-29T13:33:31.710Z,99739.84
2022-12-29T13:36:06.188Z,99744.59
2022-12-29T13:38:38.379Z,99739.16
2022-12-29T13:41:11.111Z,99737.16
2022-12-29T13:43:44.661Z,99742.66
2022-12-29T13:46:19.419Z,99748.19
2022-12-29T13:48:53.482Z,99739.75
2022-12-29T13:51:27.667Z,99744.13
2022-12-29T13:54:07.582Z,99751.25
2022-12-29T13:56:41.148Z,99750.03
2022-12-29T13:59:20.868Z,99756.78
2022-12-29T14:01:55.885Z,99760.88
2022-12-29T14:04:26.391Z,99754.00
2022-12-29T14:07:03.877Z,99768.31
2022-12-29T14:09:50.797Z,99773.06
2022-12-29T14:12:35.155Z,99789.38
2022-12-29T14:15:27.666Z,99792.31
2022-12-29T14:18:06.376Z,99795.28
2022-12-29T14:20:35.248Z,99792.88
2022-12-29T14:23:18.553Z,99806.78
2022-12-29T14:26:11.520Z,99786.31
2022-12-29T14:28:40.747Z,99777.19
2022-12-29T14:31:42.200Z,99786.00
2022-12-29T14:34:31.330Z,99776.78
2022-12-29T14:37:01.652Z,99776.78
2022-12-29T14:39:34.479Z,99792.47
2022-12-29T14:42:03.010Z,99804.38
2022-12-29T14:44:31.251Z,99785.47
2022-12-29T14:47:06.838Z,99796.94
2022-12-29T14:49:43.332Z,99791.88
2022-12-29T14:52:19.697Z,99792.59
2022-12-29T14:54:51.558Z,99791.03
2022-12-29T14:57:29.956Z,99782.06
2022-12-29T15:00:03.745Z,99783.44
2022-12-29T15:02:42.021Z,99782.88
2022-12-29T15:05:28.373Z,99780.91
2022-12-29T15:07:59.083Z,99783.56
2022-12-29T15:10:29.211Z,99772.50
2022-12-29T15:12:58.082Z,99789.72
2022-12-29T15:15:29.433Z,99781.25
2022-12-29T15:17:58.848Z,99790.63
2022-12-29T15:20:29.875Z,99800.56
2022-12-29T15:23:00.127Z,99815.53
2022-12-29T15:25:28.929Z,99822.69
2022-12-29T15:28:02.588Z,99829.50
2022-12-29T15:30:30.496Z,99838.59
2022-12-29T15:33:00.201Z,99838.00
2022-12-29T15:35:32.692Z,99839.72
2022-12-29T15:38:04.326Z,99846.53
2022-12-29T15:40:33.745Z,99849.72
2022-12-29T15:43:16.648Z,99860.75
2022-12-29T15:45:44.635Z,99853.03
2022-12-29T15:48:20.650Z,99843.75
2022-12-29T15:50:49.404Z,99859.00
2022-12-29T15:53:25.779Z,99864.19
2022-12-29T15:55:57.080Z,99873.28
2022-12-29T15:58:31.442Z,99888.25
2022-12-29T16:01:02.403Z,99893.31
2022-12-29T16:03:35.892Z,99897.91
2022-12-29T16:06:11.651Z,99897.75
2022-12-29T16:08:42.536Z,99894.16
2022-12-29T16:11:24.619Z,99898.63
2022-12-29T16:13:54.199Z,99901.13
2022-12-29T16:16:25.853Z,99897.53
2022-12-29T16:18:58.026Z,99896.53
2022-12-29T16:21:30.247Z,99900.19
2022-12-29T16:24:03.542Z,99901.00
2022-12-29T16:26:32.038Z,99909.81
2022-12-29T16:29:03.390Z,99915.03
2022-12-29T16:31:37.533Z,99909.59
2022-12-29T16:34:26.537Z,99912.13
2022-12-29T16:36:57.093Z,99907.63
2022-12-29T16:39:32.550Z,99903.31
2022-12-29T16:42:00.845Z,99915.75
2022-12-29T16:44:30.962Z,99901.59
2022-12-29T16:47:19.112Z,99909.72
2022-12-29T16:49:52.470Z,99920.34
2022-12-29T16:52:25.208Z,99915.03
2022-12-29T16:54:57.116Z,99920.34
2022-12-29T16:57:28.284Z,99930.97
2022-12-29T17:00:00.045Z,99927.38
2022-12-29T17:02:30.657Z,99931.56
2022-12-29T17:05:00.481Z,99932.56
2022-12-29T17:07:30.129Z,99933.41
2022-12-29T17:09:57.967Z,99942.34
2022-12-29T17:12:28.229Z,99937.47
2022-12-29T17:14:58.861Z,99950.06
2022-12-29T17:17:34.193Z,99946.56
2022-12-29T17:20:07.059Z,99951.19
2022-12-29T17:22:35.174Z,99931.69
2022-12-29T17:25:04.213Z,99908.88
2022-12-29T17:27:37.642Z,99899.19
2022-12-29T17:30:11.954Z,99902.00
2022-12-29T17:32:41.495Z,99920.63
2022-12-29T17:35:16.867Z,99932.22
2022-12-29T17:37:44.943Z,99928.59
2022-12-29T17:40:17.874Z,99929.56
2022-12-29T17:42:48.634Z,99922.16
2022-12-29T17:45:19.422Z,99920.63
2022-12-29T17:47:47.742Z,99921.47
2022-12-29T17:50:19.727Z,99926.06
2022-12-29T17:52:52.718Z,99910.09
2022-12-29T17:55:23.243Z,99924.50
2022-12-29T17:57:51.023Z,99922.81
2022-12-29T18:00:21.076Z,99914.94
2022-12-29T18:02:50.137Z,99916.78
2022-12-29T18:05:22.995Z,99916.91
2022-12-29T18:07:52.418Z,99918.72
2022-12-29T18:10:20.623Z,99911.72
2022-12-29T18:12:50.695Z,99912.69
2022-12-29T18:15:21.562Z,99906.66
2022-12-29T18:17:50.369Z,99905.09
2022-12-29T18:20:18.765Z,99909.72
2022-12-29T18:22:48.018Z,99914.44
2022-12-29T18:25:25.049Z,99913.72
2022-12-29T18:27:53.184Z,99915.66
2022-12-29T18:30:20.986Z,99909.75
2022-12-29T18:32:48.890Z,99905.66
2022-12-29T18:35:19.984Z,99921.59
2022-12-29T18:37:49.224Z,99906.66
2022-12-29T18:40:17.082Z,99906.78
2022-12-29T18:42:44.900Z,99907.59
2022-12-29T18:45:21.765Z,99910.66
2022-12-29T18:47:49.718Z,99920.28
2022-12-29T18:50:18.746Z,99917.75
2022-12-29T18:52:47.334Z,99915.97
2022-12-29T18:55:18.829Z,99924.19
2022-12-29T18:57:47.142Z,99918.25
2022-12-29T19:00:16.936Z,99924.56
2022-12-29T19:02:45.514Z,99926.13
2022-12-29T19:05:22.616Z,99917.53
2022-12-29T19:07:50.784Z,99915.75
2022-12-29T19:10:21.389Z,99915.88
2022-12-29T19:12:49.332Z,99923.25
2022-12-29T19:15:22.986Z,99918.88
2022-12-29T19:18:08.553Z,99925.31
2022-12-29T19:20:41.349Z,99917.34
2022-12-29T19:23:12.033Z,99923.38
2022-12-29T19:25:41.626Z,99922.66
2022-12-29T19:28:17.517Z,99917.59
2022-12-29T19:30:51.029Z,99919.53
2022-12-29T19:33:20.252Z,99925.94
2022-12-29T19:35:48.092Z,99927.03
2022-12-29T19:38:16.279Z,99935.13
2022-12-29T19:40:47.877Z,99935.38
2022-12-29T19:43:16.333Z,99934.78
2022-12-29T19:45:45.391Z,99942.88
2022-12-29T19:48:16.296Z,99948.06
2022-12-29T19:50:44.613Z,99948.19
2022-12-29T19:53:13.526Z,99944.06
2022-12-29T19:55:43.419Z,99942.41
2022-12-29T19:58:13.224Z,99950.50
2022-12-29T20:00:41.726Z,99939.16
2022-12-29T20:03:10.063Z,99940.97
2022-12-29T20:05:38.290Z,99950.72
2022-12-29T20:08:06.425Z,99946.41
2022-12-29T20:10:34.303Z,99944.56
2022-12-29T20:13:04.510Z,99956.75
2022-12-29T20:15:33.881Z,99957.47
2022-12-29T20:18:13.075Z,99970.25
2022-12-29T20:20:42.231Z,99967.50
2022-12-29T20:23:10.223Z,99977.16
2022-12-29T20:25:46.651Z,99980.53
2022-12-29T20:28:17.075Z,99981.88
2022-12-29T20:30:46.500Z,99982.59
2022-12-29T20:33:14.349Z,99975.34
2022-12-29T20:35:42.276Z,99988.47
2022-12-29T20:38:10.191Z,99996.31
2022-12-29T20:40:44.114Z,99987.53
2022-12-29T20:43:15.305Z,99990.06
2022-12-29T20:45:43.463Z,99987.50
2022-12-29T20:48:13.093Z,99988.34
2022-12-29T20:50:41.254Z,99991.84
2022-12-29T20:53:09.160Z,99989.06
2022-12-29T20:55:40.884Z,99994.50
2022-12-29T20:58:25.266Z,99993.53
2022-12-29T21:00:53.917Z,99995.34
2022-12-29T21:03:25.727Z,99996.31
2022-12-29T21:05:55.281Z,99983.88
2022-12-29T21:08:23.804Z,99995.22
2022-12-29T21:10:52.610Z,100008.38
2022-12-29T21:13:21.042Z,100006.69
2022-12-29T21:15:49.257Z,100007.06
2022-12-29T21:18:17.245Z,100010.44
2022-12-29T21:20:46.496Z,100021.19
2022-12-29T21:23:14.466Z,100025.06
2022-12-29T21:25:45.190Z,100024.44
2022-12-29T21:28:13.344Z,100035.56
2022-12-29T21:30:41.955Z,100037.41
2022-12-29T21:33:09.983Z,100043.91
2022-12-29T21:35:38.828Z,100044.66
2022-12-29T21:38:08.895Z,100044.75
2022-12-29T21:40:38.448Z,100055.38
2022-12-29T21:43:07.105Z,100047.41
2022-12-29T21:45:34.381Z,100051.03
2022-12-29T21:48:24.226Z,100059.72
2022-12-29T21:51:11.642Z,100064.81
2022-12-29T21:53:43.381Z,100072.16
2022-12-29T21:56:13.590Z,100069.63
2022-12-29T21:59:01.782Z,100073.88
2022-12-29T22:01:49.673Z,100086.44
2022-12-29T22:04:36.979Z,100079.41
2022-12-29T22:07:22.923Z,100083.06
2022-12-29T22:10:10.800Z,100092.69
2022-12-29T22:12:56.218Z,100093.78
2022-12-29T22:15:24.465Z,100090.31
2022-12-29T22:17:54.227Z,100105.25
2022-12-29T22:20:25.659Z,100101.03
2022-12-29T22:22:53.667Z,100111.78
2022-12-29T22:25:23.703Z,100122.41
2022-12-29T22:27:58.538Z,100117.34
2022-12-29T22:30:27.961Z,100124.13
2022-12-29T22:32:58.238Z,100119.75
2022-12-29T22:35:27.122Z,100121.69
2022-12-29T22:37:55.683Z,100122.66
2022-12-29T22:40:25.756Z,100127.38
2022-12-29T22:42:54.307Z,100131.97
2022-12-29T22:45:22.543Z,100139.81
2022-12-29T22:47:50.847Z,100141.00
2022-12-29T22:50:18.959Z,100145.81
2022-12-29T22:52:46.864Z,100141.59
2022-12-29T22:55:15.667Z,100139.91
2022-12-29T22:57:45.150Z,100148.13
2022-12-29T23:00:14.150Z,100151.00
2022-12-29T23:02:42.558Z,100145.19
2022-12-29T23:05:11.460Z,100143.72
2022-12-29T23:07:39.728Z,100142.66
2022-12-29T23:10:08.448Z,100146.53
2022-12-29T23:12:36.829Z,100149.50
2022-12-29T23:15:07.312Z,100152.53
2022-12-29T23:17:35.275Z,100145.84
2022-12-29T23:20:03.112Z,100153.22
2022-12-29T23:22:31.003Z,100151.88
2022-12-29T23:24:58.940Z,100149.44
2022-12-29T23:27:26.847Z,100154.13
2022-12-29T23:29:54.776Z,100158.78
2022-12-29T23:32:24.035Z,100159.88
2022-12-29T23:34:51.901Z,100153.00
2022-12-29T23:37:19.764Z,100150.69
2022-12-29T23:39:47.682Z,100162.34
2022-12-29T23:44:43.844Z,100175.34
2022-12-29T23:47:11.809Z,100192.34
2022-12-29T23:49:41.259Z,100195.22
2022-12-29T23:52:09.240Z,100198.09
2022-12-29T23:54:37.187Z,100208.72
2022-12-29T23:57:05.130Z,100206.16
2022-12-29T23:59:32.919Z,100200.97
